createdAt,value
2023-04-06T00:02:01.211Z,1.70
2023-04-06T00:04:28.918Z,1.70
2023-04-06T00:06:57.594Z,1.69
2023-04-06T00:09:25.292Z,1.69
2023-04-06T00:11:53.247Z,1.66
2023-04-06T00:14:21.269Z,1.64
2023-04-06T00:16:48.984Z,1.61
2023-04-06T00:19:16.950Z,1.59
2023-04-06T00:21:44.648Z,1.55
2023-04-06T00:24:12.995Z,1.55
2023-04-06T00:26:40.743Z,1.53
2023-04-06T00:29:08.646Z,1.52
2023-04-06T00:31:36.803Z,1.51
2023-04-06T00:34:04.627Z,1.53
2023-04-06T00:36:32.962Z,1.53
2023-04-06T00:39:00.738Z,1.51
2023-04-06T00:41:28.367Z,1.50
2023-04-06T00:43:56.074Z,1.47
2023-04-06T00:46:24.126Z,1.46
2023-04-06T00:48:51.806Z,1.46
2023-04-06T00:51:19.439Z,1.47
2023-04-06T00:53:47.663Z,1.48
2023-04-06T00:56:15.661Z,1.51
2023-04-06T00:58:43.300Z,1.57
2023-04-06T01:01:11.022Z,1.61
2023-04-06T01:03:38.694Z,1.61
2023-04-06T01:06:06.342Z,1.60
2023-04-06T01:08:35.448Z,1.61
2023-04-06T01:11:03.123Z,1.66
2023-04-06T01:13:31.134Z,1.67
2023-04-06T01:15:58.907Z,1.68
2023-04-06T01:18:26.765Z,1.65
2023-04-06T01:20:54.587Z,1.62
2023-04-06T01:23:22.277Z,1.57
2023-04-06T01:25:50.262Z,1.53
2023-04-06T01:28:17.867Z,1.48
2023-04-06T01:30:46.019Z,1.42
2023-04-06T01:33:13.634Z,1.37
2023-04-06T01:35:41.354Z,1.31
2023-04-06T01:38:09.284Z,1.27
2023-04-06T01:40:36.900Z,1.23
2023-04-06T01:43:04.574Z,1.20
2023-04-06T01:45:32.461Z,1.18
2023-04-06T01:48:00.235Z,1.16
2023-04-06T01:50:28.557Z,1.14
2023-04-06T01:52:56.263Z,1.12
2023-04-06T01:55:23.879Z,1.09
2023-04-06T01:57:51.769Z,1.07
2023-04-06T02:00:19.956Z,1.04
2023-04-06T02:02:47.994Z,1.01
2023-04-06T02:05:15.790Z,1.00
2023-04-06T02:07:43.470Z,0.97
2023-04-06T02:10:11.154Z,0.96
2023-04-06T02:12:38.762Z,0.95
2023-04-06T02:15:06.762Z,0.96
2023-04-06T02:17:34.441Z,0.97
2023-04-06T02:20:02.116Z,0.96
2023-04-06T02:22:30.028Z,0.93
2023-04-06T02:24:57.744Z,0.93
2023-04-06T02:27:25.836Z,0.92
2023-04-06T02:29:53.516Z,0.91
2023-04-06T02:32:21.221Z,0.91
2023-04-06T02:34:50.713Z,0.90
2023-04-06T02:37:18.377Z,0.88
2023-04-06T02:39:46.429Z,0.86
2023-04-06T02:42:14.359Z,0.85
2023-04-06T02:44:42.012Z,0.84
2023-04-06T02:47:09.926Z,0.83
2023-04-06T02:49:37.549Z,0.82
2023-04-06T02:52:05.539Z,0.80
2023-04-06T02:54:33.184Z,0.80
2023-04-06T02:57:01.481Z,0.79
2023-04-06T02:59:29.403Z,0.79
2023-04-06T03:01:57.040Z,0.79
2023-04-06T03:04:26.862Z,0.78
2023-04-06T03:06:54.504Z,0.77
2023-04-06T03:09:22.110Z,0.75
2023-04-06T03:11:49.814Z,0.73
2023-04-06T03:14:18.874Z,0.71
2023-04-06T03:16:46.816Z,0.70
2023-04-06T03:19:14.876Z,0.69
2023-04-06T03:21:42.558Z,0.70
2023-04-06T03:24:10.201Z,0.69
2023-04-06T03:26:37.858Z,0.69
2023-04-06T03:29:06.136Z,0.68
2023-04-06T03:31:34.014Z,0.64
2023-04-06T03:34:01.682Z,0.65
2023-04-06T03:36:29.416Z,0.65
2023-04-06T03:38:57.059Z,0.66
2023-04-06T03:41:25.085Z,0.68
2023-04-06T03:43:52.933Z,0.69
2023-04-06T03:46:20.539Z,0.68
2023-04-06T03:48:48.251Z,0.66
2023-04-06T03:51:15.957Z,0.67
2023-04-06T03:53:43.936Z,0.66
2023-04-06T03:56:11.559Z,0.66
2023-04-06T03:58:39.220Z,0.67
2023-04-06T04:01:07.908Z,0.67
2023-04-06T04:03:35.649Z,0.65
2023-04-06T04:06:03.696Z,0.65
2023-04-06T04:08:31.329Z,0.63
2023-04-06T04:10:58.975Z,0.63
2023-04-06T04:13:26.863Z,0.60
2023-04-06T04:15:54.820Z,0.60
2023-04-06T04:18:22.452Z,0.59
2023-04-06T04:20:50.136Z,0.59
2023-04-06T04:23:18.109Z,0.59
2023-04-06T04:25:46.394Z,0.57
2023-04-06T04:28:14.065Z,0.57
2023-04-06T04:30:42.106Z,0.57
2023-04-06T04:33:09.789Z,0.57
2023-04-06T04:35:37.498Z,0.55
2023-04-06T04:38:05.189Z,0.54
2023-04-06T04:40:32.818Z,0.54
2023-04-06T04:43:00.809Z,0.53
2023-04-06T04:45:28.910Z,0.54
2023-04-06T04:47:56.656Z,0.55
2023-04-06T04:50:24.644Z,0.57
2023-04-06T04:52:52.319Z,0.58
2023-04-06T04:55:20.325Z,0.57
2023-04-06T04:57:48.016Z,0.54
2023-04-06T05:00:15.710Z,0.50
2023-04-06T05:02:43.537Z,0.46
2023-04-06T05:05:11.372Z,0.46
2023-04-06T05:07:39.708Z,0.48
2023-04-06T05:10:07.346Z,0.52
2023-04-06T05:12:35.043Z,0.57
2023-04-06T05:15:02.883Z,0.62
2023-04-06T05:17:30.537Z,0.68
2023-04-06T05:19:58.393Z,0.73
2023-04-06T05:22:26.434Z,0.77
2023-04-06T05:24:54.073Z,0.83
2023-04-06T05:27:21.880Z,0.88
2023-04-06T05:29:50.057Z,0.94
2023-04-06T05:32:18.072Z,0.98
2023-04-06T05:34:45.803Z,1.03
2023-04-06T05:37:13.461Z,1.07
2023-04-06T05:39:41.466Z,1.12
2023-04-06T05:42:09.148Z,1.16
2023-04-06T05:44:36.846Z,1.24
2023-04-06T05:47:04.525Z,1.31
2023-04-06T05:49:32.321Z,1.40
2023-04-06T05:52:01.482Z,1.48
2023-04-06T05:54:29.205Z,1.60
2023-04-06T05:56:56.875Z,1.71
2023-04-06T05:59:24.997Z,1.81
2023-04-06T06:01:52.810Z,1.93
2023-04-06T06:04:20.755Z,2.05
2023-04-06T06:06:48.424Z,2.17
2023-04-06T06:09:16.469Z,2.32
2023-04-06T06:11:44.306Z,2.46
2023-04-06T06:14:12.011Z,2.65
2023-04-06T06:16:40.162Z,2.85
2023-04-06T06:19:08.262Z,3.04
2023-04-06T06:21:36.354Z,3.23
2023-04-06T06:24:04.022Z,3.38
2023-04-06T06:26:31.829Z,3.54
2023-04-06T06:28:59.674Z,3.68
2023-04-06T06:31:27.351Z,3.82
2023-04-06T06:33:55.446Z,3.96
2023-04-06T06:36:23.641Z,4.09
2023-04-06T06:38:51.370Z,4.22
2023-04-06T06:41:19.137Z,4.37
2023-04-06T06:43:46.891Z,4.52
2023-04-06T06:46:15.017Z,4.62
2023-04-06T06:48:42.890Z,4.74
2023-04-06T06:51:10.796Z,4.86
2023-04-06T06:53:38.811Z,5.00
2023-04-06T06:56:06.660Z,5.14
2023-04-06T06:58:36.502Z,5.29
2023-04-06T07:01:06.324Z,5.45
2023-04-06T07:03:34.393Z,5.58
2023-04-06T07:06:02.432Z,5.69
2023-04-06T07:08:30.228Z,5.82
2023-04-06T07:10:58.436Z,5.97
2023-04-06T07:13:28.142Z,6.12
2023-04-06T07:15:55.913Z,6.28
2023-04-06T07:18:23.885Z,6.45
2023-04-06T07:20:52.006Z,6.62
2023-04-06T07:23:20.091Z,6.78
2023-04-06T07:25:48.042Z,6.93
2023-04-06T07:28:15.917Z,7.09
2023-04-06T07:30:44.290Z,7.24
2023-04-06T07:33:12.242Z,7.40
2023-04-06T07:35:41.210Z,7.54
2023-04-06T07:38:11.259Z,7.68
2023-04-06T07:40:39.102Z,7.79
2023-04-06T07:43:07.100Z,7.91
2023-04-06T07:45:34.986Z,8.00
2023-04-06T07:48:03.267Z,8.13
2023-04-06T07:50:31.053Z,8.28
2023-04-06T07:52:59.036Z,8.41
2023-04-06T07:55:27.159Z,8.51
2023-04-06T07:57:54.925Z,8.63
2023-04-06T08:00:23.245Z,8.75
2023-04-06T08:02:51.259Z,8.86
2023-04-06T08:05:20.597Z,9.00
2023-04-06T08:07:49.414Z,9.11
2023-04-06T08:10:17.550Z,9.21
2023-04-06T08:12:46.008Z,9.29
2023-04-06T08:15:13.969Z,9.39
2023-04-06T08:17:42.182Z,9.47
2023-04-06T08:20:10.330Z,9.59
2023-04-06T08:22:38.138Z,9.69
2023-04-06T08:25:06.071Z,9.81
2023-04-06T08:27:34.493Z,9.87
2023-04-06T08:30:02.747Z,9.97
2023-04-06T08:32:31.396Z,10.10
2023-04-06T08:34:59.321Z,10.20
2023-04-06T08:37:27.709Z,10.31
2023-04-06T08:39:55.736Z,10.46
2023-04-06T08:42:23.649Z,10.60
2023-04-06T08:44:52.470Z,10.73
2023-04-06T08:47:23.115Z,10.82
2023-04-06T08:49:53.454Z,10.94
2023-04-06T08:52:23.567Z,11.08
2023-04-06T08:54:51.454Z,11.18
2023-04-06T08:57:19.432Z,11.29
2023-04-06T08:59:47.679Z,11.40
2023-04-06T09:02:16.277Z,11.53
2023-04-06T09:04:44.363Z,11.67
2023-04-06T09:07:12.382Z,11.85
2023-04-06T09:09:44.546Z,12.06
2023-04-06T09:12:13.709Z,12.25
2023-04-06T09:14:44.231Z,12.51
2023-04-06T09:17:12.112Z,12.84
2023-04-06T09:19:40.100Z,13.20
2023-04-06T09:22:08.711Z,13.46
2023-04-06T09:24:36.676Z,13.68
2023-04-06T09:27:05.435Z,13.90
2023-04-06T09:29:33.309Z,14.28
2023-04-06T09:32:01.532Z,14.69
2023-04-06T09:34:29.608Z,15.00
2023-04-06T09:36:57.562Z,15.13
2023-04-06T09:39:26.287Z,15.15
2023-04-06T09:41:54.408Z,15.07
2023-04-06T09:44:22.387Z,14.84
2023-04-06T09:47:00.520Z,14.62
2023-04-06T09:49:30.014Z,14.68
2023-04-06T09:51:58.430Z,14.84
2023-04-06T09:54:26.433Z,14.90
2023-04-06T09:56:54.538Z,15.03
2023-04-06T09:59:22.492Z,15.23
2023-04-06T10:01:50.770Z,15.46
2023-04-06T10:04:19.181Z,15.64
2023-04-06T10:06:49.192Z,15.79
2023-04-06T10:09:17.162Z,16.02
2023-04-06T10:11:45.147Z,16.17
2023-04-06T10:14:14.231Z,16.30
2023-04-06T10:16:42.277Z,16.53
2023-04-06T10:19:10.305Z,16.50
2023-04-06T10:21:39.231Z,16.47
2023-04-06T10:24:07.799Z,16.57
2023-04-06T10:26:36.198Z,16.56
2023-04-06T10:29:04.261Z,16.45
2023-04-06T10:31:32.529Z,16.36
2023-04-06T10:34:00.983Z,16.25
2023-04-06T10:36:29.284Z,16.22
2023-04-06T10:38:57.775Z,16.18
2023-04-06T10:41:26.917Z,16.13
2023-04-06T10:43:54.850Z,15.92
2023-04-06T10:46:22.965Z,15.66
2023-04-06T10:48:51.968Z,15.49
2023-04-06T10:51:20.457Z,15.49
2023-04-06T10:53:48.760Z,15.50
2023-04-06T10:56:16.787Z,15.54
2023-04-06T10:58:46.536Z,15.59
2023-04-06T11:01:14.438Z,15.62
2023-04-06T11:03:43.290Z,15.62
2023-04-06T11:06:11.398Z,15.71
2023-04-06T11:08:40.540Z,15.83
2023-04-06T11:11:09.534Z,15.92
2023-04-06T11:13:37.596Z,15.96
2023-04-06T11:16:05.477Z,15.94
2023-04-06T11:18:33.480Z,15.92
2023-04-06T11:21:01.917Z,16.02
2023-04-06T11:23:30.112Z,16.08
2023-04-06T11:25:58.177Z,16.23
2023-04-06T11:28:26.125Z,16.47
2023-04-06T11:30:54.029Z,16.69
2023-04-06T11:33:22.143Z,16.80
2023-04-06T11:35:50.275Z,16.81
2023-04-06T11:38:18.263Z,16.92
2023-04-06T11:40:46.781Z,17.20
2023-04-06T11:43:14.685Z,17.74
2023-04-06T11:45:42.479Z,18.19
2023-04-06T11:50:43.773Z,18.09
2023-04-06T11:53:12.122Z,17.97
2023-04-06T11:55:40.141Z,17.85
2023-04-06T11:58:08.318Z,17.83
2023-04-06T12:00:38.543Z,17.93
2023-04-06T12:03:06.629Z,17.87
2023-04-06T12:05:35.493Z,17.85
2023-04-06T12:08:03.865Z,17.71
2023-04-06T12:10:31.988Z,17.64
2023-04-06T12:13:00.055Z,17.58
2023-04-06T12:15:28.208Z,17.58
2023-04-06T12:17:56.594Z,17.54
2023-04-06T12:20:26.678Z,17.61
2023-04-06T12:22:55.669Z,17.60
2023-04-06T12:25:23.767Z,17.58
2023-04-06T12:27:52.054Z,17.51
2023-04-06T12:30:20.269Z,17.64
2023-04-06T12:32:50.936Z,17.64
2023-04-06T12:35:20.971Z,17.42
2023-04-06T12:37:49.114Z,17.15
2023-04-06T12:40:17.193Z,16.90
2023-04-06T12:42:47.171Z,16.76
2023-04-06T12:45:15.111Z,16.57
2023-04-06T12:47:43.182Z,16.48
2023-04-06T12:50:12.831Z,16.41
2023-04-06T12:52:40.690Z,16.31
2023-04-06T12:55:08.988Z,16.25
2023-04-06T12:57:38.391Z,16.24
2023-04-06T13:00:08.512Z,16.27
2023-04-06T13:02:37.460Z,16.26
2023-04-06T13:05:05.587Z,16.21
2023-04-06T13:07:33.811Z,16.24
2023-04-06T13:10:01.702Z,16.35
2023-04-06T13:12:29.875Z,16.45
2023-04-06T13:14:59.378Z,16.56
2023-04-06T13:17:28.453Z,16.63
2023-04-06T13:19:56.899Z,16.67
2023-04-06T13:22:25.018Z,16.67
2023-04-06T13:24:52.813Z,16.80
2023-04-06T13:27:21.117Z,16.87
2023-04-06T13:29:49.031Z,16.90
2023-04-06T13:32:17.435Z,16.80
2023-04-06T13:34:46.221Z,16.82
2023-04-06T13:37:14.083Z,16.88
2023-04-06T13:39:42.347Z,16.89
2023-04-06T13:42:12.566Z,16.91
2023-04-06T13:44:40.366Z,16.93
2023-04-06T13:47:08.375Z,16.86
2023-04-06T13:49:36.644Z,16.65
2023-04-06T13:52:06.306Z,16.31
2023-04-06T13:54:34.050Z,15.99
2023-04-06T13:57:02.481Z,15.70
2023-04-06T13:59:30.937Z,15.52
2023-04-06T14:01:58.919Z,15.43
2023-04-06T14:04:26.934Z,15.38
2023-04-06T14:06:54.878Z,15.33
2023-04-06T14:09:23.334Z,15.36
2023-04-06T14:11:51.244Z,15.39
2023-04-06T14:14:19.207Z,15.44
2023-04-06T14:16:47.642Z,15.49
2023-04-06T14:19:15.704Z,15.45
2023-04-06T14:21:45.213Z,15.40
2023-04-06T14:24:12.987Z,15.38
2023-04-06T14:26:40.947Z,15.29
2023-04-06T14:29:09.119Z,15.13
2023-04-06T14:31:37.103Z,14.96
2023-04-06T14:34:05.159Z,14.83
2023-04-06T14:36:37.570Z,14.68
2023-04-06T14:39:07.193Z,14.54
2023-04-06T14:41:35.394Z,14.42
2023-04-06T14:44:03.375Z,14.28
2023-04-06T14:46:31.750Z,14.19
2023-04-06T14:49:00.061Z,14.15
2023-04-06T14:51:28.495Z,14.09
2023-04-06T14:53:56.430Z,14.03
2023-04-06T14:56:24.420Z,13.99
2023-04-06T14:58:53.278Z,13.95
2023-04-06T15:01:21.293Z,13.95
2023-04-06T15:03:50.045Z,13.94
2023-04-06T15:06:18.590Z,13.92
2023-04-06T15:08:46.464Z,13.87
2023-04-06T15:11:14.464Z,13.80
2023-04-06T15:13:42.735Z,13.73
2023-04-06T15:16:10.823Z,13.67
2023-04-06T15:18:38.931Z,13.58
2023-04-06T15:21:07.355Z,13.48
2023-04-06T15:23:36.095Z,13.36
2023-04-06T15:26:05.119Z,13.23
2023-04-06T15:28:32.957Z,13.15
2023-04-06T15:31:01.164Z,13.08
2023-04-06T15:33:29.225Z,13.07
2023-04-06T15:35:57.681Z,13.03
2023-04-06T15:38:25.633Z,12.95
2023-04-06T15:40:53.436Z,12.85
2023-04-06T15:43:21.436Z,12.78
2023-04-06T15:45:49.231Z,12.69
2023-04-06T15:48:17.329Z,12.64
2023-04-06T15:50:45.162Z,12.57
2023-04-06T15:53:13.014Z,12.47
2023-04-06T15:55:40.918Z,12.40
2023-04-06T15:58:08.800Z,12.32
2023-04-06T16:00:37.263Z,12.29
2023-04-06T16:03:05.371Z,12.26
2023-04-06T16:05:34.776Z,12.24
2023-04-06T16:08:03.262Z,12.20
2023-04-06T16:10:31.109Z,12.15
2023-04-06T16:12:58.970Z,12.09
2023-04-06T16:15:26.895Z,12.04
2023-04-06T16:17:54.849Z,11.96
2023-04-06T16:20:23.243Z,11.90
2023-04-06T16:22:51.455Z,11.84
2023-04-06T16:25:19.761Z,11.79
2023-04-06T16:27:48.363Z,11.72
2023-04-06T16:30:16.200Z,11.66
2023-04-06T16:32:46.790Z,11.59
2023-04-06T16:35:14.552Z,11.49
2023-04-06T16:37:42.387Z,11.38
2023-04-06T16:40:10.271Z,11.30
2023-04-06T16:42:38.075Z,11.23
2023-04-06T16:45:06.527Z,11.15
2023-04-06T16:47:34.481Z,11.05
2023-04-06T16:50:05.143Z,10.94
2023-04-06T16:52:33.978Z,10.84
2023-04-06T16:55:02.039Z,10.75
2023-04-06T16:57:30.583Z,10.63
2023-04-06T16:59:58.647Z,10.51
2023-04-06T17:02:26.967Z,10.42
2023-04-06T17:04:54.980Z,10.33
2023-04-06T17:07:26.680Z,10.28
2023-04-06T17:09:55.210Z,10.23
2023-04-06T17:12:23.168Z,10.17
2023-04-06T17:14:51.582Z,10.11
2023-04-06T17:17:19.530Z,10.05
2023-04-06T17:19:47.374Z,9.95
2023-04-06T17:22:20.788Z,9.86
2023-04-06T17:24:49.002Z,9.80
2023-04-06T17:27:17.309Z,9.71
2023-04-06T17:29:45.417Z,9.60
2023-04-06T17:32:13.315Z,9.52
2023-04-06T17:34:41.220Z,9.46
2023-04-06T17:37:09.302Z,9.40
2023-04-06T17:39:37.843Z,9.37
2023-04-06T17:42:06.161Z,9.33
2023-04-06T17:44:34.967Z,9.28
2023-04-06T17:47:02.833Z,9.18
2023-04-06T17:49:30.657Z,9.06
2023-04-06T17:51:59.349Z,8.94
2023-04-06T17:54:27.248Z,8.81
2023-04-06T17:56:55.193Z,8.73
2023-04-06T17:59:23.127Z,8.67
2023-04-06T18:01:51.186Z,8.63
2023-04-06T18:04:19.502Z,8.61
2023-04-06T18:06:47.496Z,8.62
2023-04-06T18:09:15.490Z,8.62
2023-04-06T18:11:43.824Z,8.64
2023-04-06T18:14:12.846Z,8.64
2023-04-06T18:16:41.326Z,8.63
2023-04-06T18:19:09.356Z,8.59
2023-04-06T18:21:37.299Z,8.51
2023-04-06T18:24:06.702Z,8.45
2023-04-06T18:26:34.688Z,8.43
2023-04-06T18:29:03.094Z,8.39
2023-04-06T18:31:31.052Z,8.35
2023-04-06T18:33:59.401Z,8.31
2023-04-06T18:36:28.401Z,8.26
2023-04-06T18:38:56.357Z,8.23
2023-04-06T18:41:24.938Z,8.20
2023-04-06T18:43:52.964Z,8.14
2023-04-06T18:46:21.274Z,8.08
2023-04-06T18:48:49.229Z,8.04
2023-04-06T18:51:17.136Z,8.02
2023-04-06T18:53:45.764Z,7.98
2023-04-06T18:56:13.652Z,7.96
2023-04-06T18:58:42.644Z,7.95
2023-04-06T19:01:10.725Z,7.95
2023-04-06T19:03:40.264Z,7.92
2023-04-06T19:06:09.576Z,7.90
2023-04-06T19:08:37.474Z,7.86
2023-04-06T19:11:05.257Z,7.85
2023-04-06T19:13:34.622Z,7.82
2023-04-06T19:16:02.567Z,7.82
2023-04-06T19:18:30.830Z,7.82
2023-04-06T19:20:59.243Z,7.81
2023-04-06T19:23:27.306Z,7.78
2023-04-06T19:25:56.717Z,7.76
2023-04-06T19:28:24.703Z,7.73
2023-04-06T19:30:52.980Z,7.70
2023-04-06T19:33:21.109Z,7.69
2023-04-06T19:35:49.150Z,7.68
2023-04-06T19:38:17.239Z,7.67
2023-04-06T19:40:45.047Z,7.66
2023-04-06T19:43:13.268Z,7.65
2023-04-06T19:45:41.091Z,7.67
2023-04-06T19:48:08.923Z,7.68
2023-04-06T19:50:37.209Z,7.71
2023-04-06T19:53:05.331Z,7.72
2023-04-06T19:55:33.582Z,7.74
2023-04-06T19:58:01.566Z,7.75
2023-04-06T20:00:29.490Z,7.77
2023-04-06T20:02:57.582Z,7.76
2023-04-06T20:05:26.101Z,7.75
2023-04-06T20:07:54.004Z,7.73
2023-04-06T20:10:21.936Z,7.70
2023-04-06T20:12:50.798Z,7.68
2023-04-06T20:15:19.346Z,7.67
2023-04-06T20:17:47.183Z,7.68
2023-04-06T20:20:15.394Z,7.67
2023-04-06T20:22:43.227Z,7.66
2023-04-06T20:25:11.808Z,7.63
2023-04-06T20:27:41.475Z,7.60
2023-04-06T20:30:09.256Z,7.57
2023-04-06T20:32:37.509Z,7.55
2023-04-06T20:35:05.463Z,7.56
2023-04-06T20:37:33.231Z,7.54
2023-04-06T20:40:01.785Z,7.53
2023-04-06T20:42:30.213Z,7.54
2023-04-06T20:44:58.901Z,7.52
2023-04-06T20:47:27.468Z,7.51
2023-04-06T20:49:55.981Z,7.51
2023-04-06T20:52:23.974Z,7.51
2023-04-06T20:54:52.088Z,7.51
2023-04-06T20:57:20.483Z,7.48
2023-04-06T20:59:48.300Z,7.46
2023-04-06T21:02:16.333Z,7.43
2023-04-06T21:04:44.692Z,7.40
2023-04-06T21:07:12.601Z,7.39
2023-04-06T21:09:40.845Z,7.37
2023-04-06T21:12:08.762Z,7.37
2023-04-06T21:14:36.787Z,7.36
2023-04-06T21:17:04.696Z,7.36
2023-04-06T21:19:32.519Z,7.36
2023-04-06T21:22:01.051Z,7.34
2023-04-06T21:24:28.930Z,7.34
2023-04-06T21:26:57.078Z,7.34
2023-04-06T21:29:25.049Z,7.36
2023-04-06T21:31:55.731Z,7.37
2023-04-06T21:34:23.959Z,7.38
2023-04-06T21:36:51.817Z,7.37
2023-04-06T21:39:19.743Z,7.38
2023-04-06T21:41:48.002Z,7.39
2023-04-06T21:44:17.710Z,7.39
2023-04-06T21:46:46.428Z,7.40
2023-04-06T21:49:14.319Z,7.41
2023-04-06T21:51:42.981Z,7.43
2023-04-06T21:54:10.833Z,7.46
2023-04-06T21:56:38.726Z,7.48
2023-04-06T21:59:07.012Z,7.50
2023-04-06T22:01:34.916Z,7.51
2023-04-06T22:04:03.021Z,7.52
2023-04-06T22:06:31.193Z,7.51
2023-04-06T22:09:00.627Z,7.49
2023-04-06T22:11:28.982Z,7.47
2023-04-06T22:13:56.749Z,7.45
2023-04-06T22:16:24.550Z,7.45
2023-04-06T22:18:52.704Z,7.43
2023-04-06T22:21:20.706Z,7.43
2023-04-06T22:23:48.846Z,7.45
2023-04-06T22:26:16.830Z,7.45
2023-04-06T22:28:44.687Z,7.46
2023-04-06T22:31:12.558Z,7.48
2023-04-06T22:33:40.462Z,7.50
2023-04-06T22:36:09.024Z,7.51
2023-04-06T22:38:36.783Z,7.53
2023-04-06T22:41:05.995Z,7.56
2023-04-06T22:43:35.176Z,7.57
2023-04-06T22:46:02.979Z,7.60
2023-04-06T22:48:31.184Z,7.63
2023-04-06T22:50:58.968Z,7.67
2023-04-06T22:53:27.221Z,7.68
2023-04-06T22:55:55.326Z,7.70
2023-04-06T22:58:23.459Z,7.73
2023-04-06T23:00:51.542Z,7.76
2023-04-06T23:03:19.455Z,7.78
2023-04-06T23:05:47.878Z,7.81
2023-04-06T23:08:15.964Z,7.82
2023-04-06T23:10:43.716Z,7.85
2023-04-06T23:13:11.462Z,7.87
2023-04-06T23:15:39.130Z,7.88
2023-04-06T23:18:07.063Z,7.89
2023-04-06T23:20:36.497Z,7.90
2023-04-06T23:23:04.211Z,7.89
2023-04-06T23:25:32.292Z,7.88
2023-04-06T23:28:00.111Z,7.89
2023-04-06T23:30:27.787Z,7.90
2023-04-06T23:32:55.535Z,7.91
2023-04-06T23:35:23.320Z,7.90
2023-04-06T23:37:51.352Z,7.90
2023-04-06T23:40:19.455Z,7.91
2023-04-06T23:42:47.183Z,7.92
2023-04-06T23:45:14.815Z,7.92
2023-04-06T23:47:42.517Z,7.89
2023-04-06T23:50:10.792Z,7.87
2023-04-06T23:52:38.417Z,7.85
2023-04-06T23:55:06.723Z,7.85
2023-04-06T23:57:34.589Z,7.84
